Time;durP1;ratioP1;P1;durP2;ratioP2;P2;SDS_P1;SDS_P2;PMS_P1;PMS_P2;Temp;Humidity;BMP_temperature;BMP_pressure;BME280_temperature;BME280_humidity;BME280_pressure;Samples;Min_cycle;Max_cycle;Signal;HPM_P1;HPM_P2
2022/08/02 00:01:08;;;;;;;4.53;3.13;;;;;;;27.86;47.41;100722.56;5012997;28;20116;-78
2022/08/02 00:03:36;;;;;;;4.13;3.30;;;;;;;27.85;47.52;100724.47;5012981;28;20046;-78
2022/08/02 00:06:03;;;;;;;5.57;3.45;;;;;;;27.86;47.42;100728.00;5012506;28;20406;-78
2022/08/02 00:08:31;;;;;;;4.05;2.88;;;;;;;27.88;47.10;100730.56;5011156;28;20501;-78
2022/08/02 00:10:58;;;;;;;4.07;2.80;;;;;;;27.88;47.13;100720.53;5011617;28;20053;-78
2022/08/02 00:13:26;;;;;;;4.25;2.58;;;;;;;27.89;47.13;100726.81;5012439;28;20038;-78
2022/08/02 00:15:53;;;;;;;3.45;3.10;;;;;;;27.89;47.39;100724.91;5011568;28;20050;-78
2022/08/02 00:18:21;;;;;;;4.82;3.25;;;;;;;27.90;47.23;100732.03;5012536;28;20057;-78
2022/08/02 00:20:48;;;;;;;6.00;2.95;;;;;;;27.89;47.21;100724.09;5012360;28;20050;-78
2022/08/02 00:23:15;;;;;;;4.15;3.03;;;;;;;27.92;47.25;100729.16;5012330;28;20042;-78
2022/08/02 00:25:43;;;;;;;4.28;2.92;;;;;;;27.91;47.21;100732.88;5012611;28;20053;-78
2022/08/02 00:28:22;;;;;;;5.15;3.13;;;;;;;27.91;47.27;100741.88;5010343;28;20103;-78
2022/08/02 00:30:55;;;;;;;;;;;;;;;27.91;47.10;100744.59;4995756;28;20042;-78
2022/08/02 00:33:22;;;;;;;5.07;3.35;;;;;;;27.92;47.56;100759.91;5008092;28;19929;-78
2022/08/02 00:36:10;;;;;;;4.65;3.50;;;;;;;27.92;47.12;100767.25;5012302;28;20050;-78
2022/08/02 00:38:37;;;;;;;3.53;2.90;;;;;;;27.93;47.49;100764.31;5012676;28;20057;-78
2022/08/02 00:41:11;;;;;;;5.32;3.00;;;;;;;27.94;47.50;100767.88;5012135;28;20049;-78
2022/08/02 00:43:39;;;;;;;3.35;2.65;;;;;;;27.93;47.11;100745.28;5012441;28;20045;-78
2022/08/02 00:46:06;;;;;;;5.32;2.78;;;;;;;27.94;47.18;100757.84;5012331;28;20501;-78
2022/08/02 00:48:37;;;;;;;4.72;3.10;;;;;;;27.94;47.23;100755.13;5012251;28;20057;-78
2022/08/02 00:51:10;;;;;;;3.72;2.78;;;;;;;27.95;47.23;100747.78;5012061;28;20045;-78
2022/08/02 00:53:38;;;;;;;3.40;2.72;;;;;;;27.95;47.71;100756.78;5012902;28;20046;-78
2022/08/02 00:56:06;;;;;;;4.43;3.45;;;;;;;27.96;47.66;100760.38;5012051;28;20042;-78
2022/08/02 00:58:33;;;;;;;3.70;2.88;;;;;;;27.96;47.57;100766.66;4994652;28;20057;-78
2022/08/02 01:01:02;;;;;;;5.22;3.30;;;;;;;27.96;47.63;100765.81;5011761;28;20053;-78
2022/08/02 01:03:29;;;;;;;5.55;3.22;;;;;;;27.97;47.40;100772.94;5012292;28;20524;-78
2022/08/02 01:05:57;;;;;;;4.70;3.08;;;;;;;27.96;47.68;100766.66;5011670;28;20046;-78
2022/08/02 01:08:38;;;;;;;7.72;2.67;;;;;;;27.97;47.77;100768.34;5010139;28;20062;-78
2022/08/02 01:11:06;;;;;;;5.38;3.00;;;;;;;27.99;47.88;100768.13;5011861;28;20060;-78
2022/08/02 01:13:33;;;;;;;4.80;3.45;;;;;;;27.98;47.68;100771.91;5011581;28;20045;-78
2022/08/02 01:16:06;;;;;;;3.38;2.78;;;;;;;27.98;47.42;100772.75;5011814;28;20050;-78
2022/08/02 01:18:39;;;;;;;3.67;2.92;;;;;;;27.99;47.71;100782.59;5012003;28;20053;-78
2022/08/02 01:21:24;;;;;;;2.97;2.30;;;;;;;27.99;47.96;100788.03;5011482;28;20049;-78
2022/08/02 01:24:03;;;;;;;4.07;2.70;;;;;;;27.99;47.59;100798.91;5011475;28;20042;-78
2022/08/02 01:26:39;;;;;;;3.58;2.78;;;;;;;27.99;47.78;100800.78;5009575;28;20057;-78
2022/08/02 01:29:33;;;;;;;3.47;3.17;;;;;;;28.00;47.61;100803.34;5011840;28;20050;-78
2022/08/02 01:32:11;;;;;;;3.42;2.80;;;;;;;28.00;47.97;100811.50;5015500;28;20629;-78
2022/08/02 01:34:49;;;;;;;4.90;3.08;;;;;;;28.00;47.89;100805.22;4998151;28;20043;-78
2022/08/02 01:37:19;;;;;;;3.30;3.00;;;;;;;28.01;47.73;100809.63;4992134;28;20402;-78
2022/08/02 01:39:51;;;;;;;3.08;2.47;;;;;;;28.01;47.74;100806.91;4991614;28;20050;-77
2022/08/02 01:42:21;;;;;;;4.07;2.38;;;;;;;28.00;47.71;100806.06;4991907;28;20057;-77
2022/08/02 01:44:52;;;;;;;4.80;2.83;;;;;;;28.02;47.73;100827.63;4991907;28;20042;-77
2022/08/02 01:47:27;;;;;;;2.60;2.38;;;;;;;28.00;47.90;100825.13;4991784;28;20053;-77
2022/08/02 01:49:57;;;;;;;4.22;2.83;;;;;;;28.01;47.91;100820.50;4991995;28;20054;-78
2022/08/02 01:52:28;;;;;;;5.00;3.05;;;;;;;28.01;47.99;100810.47;4991466;28;20415;-78
2022/08/02 01:55:09;;;;;;;4.18;2.78;;;;;;;28.01;48.16;100818.63;4991488;28;20046;-78
2022/08/02 01:57:52;;;;;;;4.25;2.50;;;;;;;28.02;47.99;100817.59;4991210;28;20054;-78
2022/08/02 02:00:23;;;;;;;3.30;2.78;;;;;;;28.02;48.05;100820.31;4991759;28;20054;-78
2022/08/02 02:02:53;;;;;;;3.22;2.42;;;;;;;28.02;47.97;100819.47;4991329;28;20393;-78
2022/08/02 02:05:25;;;;;;;3.38;2.53;;;;;;;28.02;48.04;100823.03;4991704;28;20058;-78
2022/08/02 02:07:55;;;;;;;2.80;2.50;;;;;;;28.02;47.95;100825.75;4991765;28;20050;-78
2022/08/02 02:10:32;;;;;;;3.20;2.72;;;;;;;28.01;48.36;100826.81;4989952;28;20050;-78
2022/08/02 02:13:13;;;;;;;3.63;2.60;;;;;;;28.03;48.40;100832.03;4990099;28;20054;-78
2022/08/02 02:15:50;;;;;;;3.13;2.60;;;;;;;28.02;48.13;100831.19;4992004;28;20042;-78
2022/08/02 02:18:23;;;;;;;2.97;2.67;;;;;;;28.02;48.16;100825.75;4989741;28;20051;-78
2022/08/02 02:20:51;;;;;;;2.90;2.60;;;;;;;28.03;48.13;100838.31;4991654;28;20042;-78
2022/08/02 02:23:18;;;;;;;3.60;2.78;;;;;;;28.03;48.26;100824.72;4990016;28;20038;-78
2022/08/02 02:25:53;;;;;;;3.47;2.47;;;;;;;28.03;48.08;100830.16;4990127;28;20054;-78
2022/08/02 02:28:29;;;;;;;2.65;2.42;;;;;;;28.03;48.60;100827.44;4991455;28;20044;-78
2022/08/02 02:31:09;;;;;;;3.42;2.35;;;;;;;28.04;48.63;100823.72;4991151;28;20050;-78
2022/08/02 02:33:43;;;;;;;4.57;2.75;;;;;;;28.04;48.50;100829.16;4997382;28;20099;-78
2022/08/02 02:36:11;;;;;;;3.40;2.40;;;;;;;28.05;48.80;100838.16;5007519;28;20042;-78
2022/08/02 02:38:40;;;;;;;4.35;3.22;;;;;;;28.04;48.66;100845.47;5011835;28;20046;-77
2022/08/02 02:41:09;;;;;;;3.72;2.83;;;;;;;28.04;48.90;100852.81;5014077;28;20046;-77
2022/08/02 02:43:38;;;;;;;2.63;2.42;;;;;;;28.05;48.46;100857.19;5014203;28;20054;-77
2022/08/02 02:46:07;;;;;;;3.70;2.60;;;;;;;28.05;48.84;100860.75;5014014;28;20056;-77
2022/08/02 02:48:35;;;;;;;4.28;2.50;;;;;;;28.04;48.92;100864.53;5013860;28;20061;-77
2022/08/02 02:51:04;;;;;;;3.03;2.63;;;;;;;28.05;48.96;100860.75;5014080;28;20057;-77
2022/08/02 02:53:41;;;;;;;4.03;2.55;;;;;;;28.05;49.13;100874.38;5076785;28;20044;-77
2022/08/02 02:56:29;;;;;;;3.70;2.60;;;;;;;28.05;48.93;100865.38;5117463;28;20067;-77
2022/08/02 02:58:59;;;;;;;3.58;2.38;;;;;;;28.05;48.86;100865.38;5118064;28;20047;-77
2022/08/02 03:01:27;;;;;;;2.95;2.65;;;;;;;28.05;49.05;100873.53;5117560;28;20053;-78
2022/08/02 03:04:15;;;;;;;3.85;2.83;;;;;;;28.06;49.30;100886.94;5115512;28;20062;-78
2022/08/02 03:06:43;;;;;;;2.83;2.47;;;;;;;28.06;49.07;100881.50;5117322;28;20047;-78
2022/08/02 03:09:11;;;;;;;3.42;2.47;;;;;;;28.06;49.34;100881.50;5116352;28;20054;-79
2022/08/02 03:11:40;;;;;;;2.88;2.50;;;;;;;28.06;48.93;100886.09;5117214;28;20044;-79
2022/08/02 03:14:10;;;;;;;3.45;2.45;;;;;;;28.06;49.50;100880.66;5117232;28;20391;-78
2022/08/02 03:16:49;;;;;;;3.65;2.50;;;;;;;28.07;49.31;100883.19;5117266;28;20051;-78
2022/08/02 03:19:18;;;;;;;3.72;2.72;;;;;;;28.06;49.25;100886.94;5117610;28;20044;-78
2022/08/02 03:21:47;;;;;;;3.95;2.38;;;;;;;28.06;49.57;100886.94;5115425;28;20052;-78
2022/08/02 03:24:23;;;;;;;4.75;2.78;;;;;;;28.07;49.67;100901.38;5117123;28;20047;-78
2022/08/02 03:26:54;;;;;;;3.42;2.38;;;;;;;28.07;49.49;100915.84;5117267;28;20070;-78
2022/08/02 03:29:22;;;;;;;3.83;2.70;;;;;;;28.09;49.84;100923.84;5068298;28;20050;-78
2022/08/02 03:31:49;;;;;;;3.28;2.83;;;;;;;28.08;49.63;100923.00;5013377;28;20409;-78
2022/08/02 03:34:17;;;;;;;4.22;2.60;;;;;;;28.09;50.04;100938.28;5041630;28;20393;-77
2022/08/02 03:36:50;;;;;;;4.90;2.67;;;;;;;28.10;49.68;100947.28;5011635;28;20512;-78
2022/08/02 03:39:21;;;;;;;4.65;2.53;;;;;;;28.10;50.06;100953.56;5013386;28;20042;-79
2022/08/02 03:41:49;;;;;;;4.00;2.33;;;;;;;28.09;49.67;100954.63;5012367;28;20053;-78
2022/08/02 03:44:17;;;;;;;3.95;2.85;;;;;;;28.10;49.92;100959.03;5012696;28;20046;-78
2022/08/02 03:46:44;;;;;;;3.00;2.45;;;;;;;28.11;50.06;100954.41;5012869;28;20042;-78
2022/08/02 03:49:15;;;;;;;3.75;2.53;;;;;;;28.10;50.30;100956.28;5013155;28;20053;-78
2022/08/02 03:51:44;;;;;;;2.97;2.60;;;;;;;28.10;50.39;100952.72;5013207;28;20057;-78
2022/08/02 03:54:12;;;;;;;3.35;2.53;;;;;;;28.12;50.56;100952.56;5012819;28;20042;-78
2022/08/02 03:56:40;;;;;;;2.83;2.42;;;;;;;28.11;50.52;100946.25;5012835;28;20066;-78
2022/08/02 03:59:12;;;;;;;3.35;2.75;;;;;;;28.12;50.46;100941.69;5011516;28;20389;-78
2022/08/02 04:01:39;;;;;;;3.95;2.92;;;;;;;28.11;50.68;100943.53;5012862;28;20073;-78
2022/08/02 04:04:07;;;;;;;4.43;2.70;;;;;;;28.12;50.80;100947.13;5011087;28;20054;-78
2022/08/02 04:06:35;;;;;;;3.60;2.75;;;;;;;28.12;50.58;100958.00;5013019;28;20049;-78
2022/08/02 04:09:09;;;;;;;2.90;2.58;;;;;;;28.12;50.47;100968.91;5012872;28;20053;-77
2022/08/02 04:11:36;;;;;;;3.88;2.70;;;;;;;28.12;50.91;100979.78;4995391;28;20058;-78
2022/08/02 04:14:07;;;;;;;3.70;3.10;;;;;;;28.12;51.04;100972.47;5012953;28;20053;-78
2022/08/02 04:16:56;;;;;;;3.25;2.95;;;;;;;28.12;50.96;100974.34;5012432;28;20037;-78
2022/08/02 04:19:41;;;;;;;4.43;2.88;;;;;;;28.12;50.54;100977.91;4995271;28;20497;-78
2022/08/02 04:22:15;;;;;;;3.58;2.60;;;;;;;28.12;51.07;100983.34;5012488;28;20054;-78
2022/08/02 04:24:48;;;;;;;8.07;2.70;;;;;;;28.13;51.09;100992.34;5012636;28;20049;-78
2022/08/02 04:27:18;;;;;;;4.43;3.13;;;;;;;28.13;51.36;100992.34;5011513;28;20054;-78
2022/08/02 04:30:06;;;;;;;5.13;2.85;;;;;;;28.12;51.95;100999.69;4997119;28;20425;-78
2022/08/02 04:32:34;;;;;;;4.55;2.53;;;;;;;28.13;52.04;101009.53;4974929;28;20046;-78
2022/08/02 04:35:02;;;;;;;4.25;2.45;;;;;;;28.12;51.92;101010.56;4997336;28;20045;-78
2022/08/02 04:37:47;;;;;;;4.63;2.40;;;;;;;28.12;51.59;101031.50;4997082;28;20054;-78
2022/08/02 04:40:35;;;;;;;3.03;2.45;;;;;;;28.13;52.14;101016.84;4992727;28;20383;-78
2022/08/02 04:43:03;;;;;;;4.28;2.40;;;;;;;28.12;52.07;101024.19;4992705;28;20050;-78
2022/08/02 04:45:31;;;;;;;4.72;2.33;;;;;;;28.11;52.26;101036.06;4992606;28;20053;-78
2022/08/02 04:47:58;;;;;;;5.78;2.70;;;;;;;28.10;51.97;101029.78;4992731;28;20058;-78
2022/08/02 04:50:34;;;;;;;4.43;2.35;;;;;;;28.10;52.08;101037.94;4993505;28;20069;-78
2022/08/02 04:53:01;;;;;;;3.08;2.20;;;;;;;28.10;51.92;101057.00;4991149;28;20042;-79
2022/08/02 04:55:28;;;;;;;3.28;2.08;;;;;;;28.09;51.87;101058.03;5015040;28;20393;-78
2022/08/02 04:57:57;;;;;;;4.50;2.72;;;;;;;28.09;51.79;101062.66;5011669;28;20062;-78
2022/08/02 05:00:27;;;;;;;4.07;2.35;;;;;;;28.09;51.34;101078.97;5011699;28;20072;-78
2022/08/02 05:02:56;;;;;;;3.53;2.25;;;;;;;28.10;51.54;101086.94;5011383;28;20064;-78
2022/08/02 05:05:24;;;;;;;3.67;2.10;;;;;;;28.10;51.65;101088.81;5012001;28;20042;-78
2022/08/02 05:07:51;;;;;;;4.35;1.90;;;;;;;28.10;51.15;101092.38;5011693;28;20042;-78
2022/08/02 05:10:19;;;;;;;4.60;2.40;;;;;;;28.10;51.15;101100.56;5011640;28;20045;-78
2022/08/02 05:12:47;;;;;;;3.28;2.17;;;;;;;28.10;51.32;101103.28;5011775;28;20053;-78
2022/08/02 05:15:17;;;;;;;4.55;2.20;;;;;;;28.10;51.43;101099.72;5009864;28;20076;-78
2022/08/02 05:17:46;;;;;;;4.38;2.28;;;;;;;28.10;51.18;101105.16;5010158;28;20054;-78
2022/08/02 05:20:16;;;;;;;4.43;2.40;;;;;;;28.10;50.96;101111.44;5012004;28;20056;-78
2022/08/02 05:22:44;;;;;;;3.30;2.30;;;;;;;28.10;51.15;101114.16;5011658;28;20401;-78
2022/08/02 05:25:11;;;;;;;4.43;2.50;;;;;;;28.10;51.26;101126.94;5011727;28;20050;-78
2022/08/02 05:27:40;;;;;;;4.43;2.38;;;;;;;28.10;50.89;101133.22;5012006;28;20045;-78
2022/08/02 05:30:08;;;;;;;3.53;2.00;;;;;;;28.09;50.91;101131.53;5010175;28;20054;-78
2022/08/02 05:32:43;;;;;;;3.80;2.00;;;;;;;28.11;51.04;101134.06;5011455;28;20042;-78
2022/08/02 05:35:10;;;;;;;3.75;2.13;;;;;;;28.11;51.09;101144.94;5012027;28;20068;-78
2022/08/02 05:37:38;;;;;;;3.65;2.22;;;;;;;28.10;50.88;101148.69;5003426;28;20056;-76
2022/08/02 05:40:09;;;;;;;4.35;2.65;;;;;;;28.11;51.02;101147.66;5011393;28;20049;-78
2022/08/02 05:42:40;;;;;;;3.00;1.92;;;;;;;28.12;51.01;101159.44;5011326;28;20050;-78
2022/08/02 05:45:08;;;;;;;3.90;2.00;;;;;;;28.11;51.37;101166.72;5011423;28;20050;-78
2022/08/02 05:47:36;;;;;;;3.53;2.10;;;;;;;28.12;51.03;101173.03;5011228;28;20072;-79
2022/08/02 05:50:06;;;;;;;5.80;2.70;;;;;;;28.13;50.92;101182.88;5011207;28;20057;-78
2022/08/02 05:52:45;;;;;;;4.15;1.85;;;;;;;28.10;51.32;101176.78;5010580;28;20049;-79
2022/08/02 05:55:24;;;;;;;4.82;2.25;;;;;;;28.11;50.98;101172.16;5011035;28;20481;-79
2022/08/02 05:58:10;;;;;;;2.90;1.95;;;;;;;28.13;51.16;101182.88;5009896;28;20389;-79
2022/08/02 06:00:40;;;;;;;4.95;2.83;;;;;;;28.12;51.01;101184.78;5009820;28;20520;-79
2022/08/02 06:03:30;;;;;;;4.03;2.45;;;;;;;28.12;51.06;101190.22;5011251;28;20397;-78
2022/08/02 06:06:10;;;;;;;3.38;2.20;;;;;;;28.12;50.71;101184.78;5010897;28;20050;-78
2022/08/02 06:08:43;;;;;;;4.90;2.03;;;;;;;28.14;51.05;101193.59;5010868;28;20050;-78
2022/08/02 06:11:19;;;;;;;3.70;2.10;;;;;;;28.13;50.97;101197.34;5009840;28;20050;-78
2022/08/02 06:13:47;;;;;;;3.85;2.20;;;;;;;28.15;50.89;101197.16;5008736;28;20054;-78
2022/08/02 06:16:15;;;;;;;5.88;2.22;;;;;;;28.15;50.76;101202.59;5010704;28;20057;-78
2022/08/02 06:18:59;;;;;;;6.30;2.47;;;;;;;28.13;51.04;101208.22;5011252;28;20050;-78
2022/08/02 06:21:48;;;;;;;2.65;1.80;;;;;;;28.14;51.05;101222.69;5010678;28;20053;-78
2022/08/02 06:24:35;;;;;;;5.15;2.08;;;;;;;28.16;50.78;101239.69;5009625;28;20054;-78
2022/08/02 06:27:02;;;;;;;3.17;2.05;;;;;;;28.16;50.84;101247.88;5010560;28;20050;-78
2022/08/02 06:29:31;;;;;;;6.35;2.45;;;;;;;28.16;51.10;101258.75;5000561;28;20050;-78
2022/08/02 06:32:06;;;;;;;6.10;2.17;;;;;;;28.16;50.96;101254.16;4991066;28;20061;-78
2022/08/02 06:34:39;;;;;;;6.55;2.25;;;;;;;28.16;50.68;101262.31;4990916;28;20042;-79
2022/08/02 06:37:28;;;;;;;4.25;2.33;;;;;;;28.16;50.57;101262.31;4995934;28;20080;-78
2022/08/02 06:40:06;;;;;;;3.13;1.83;;;;;;;28.17;50.97;101252.28;4996236;28;20050;-78
2022/08/02 06:42:47;;;;;;;3.45;2.00;;;;;;;28.17;51.02;101252.28;4990998;28;20054;-78
2022/08/02 06:45:15;;;;;;;3.42;1.80;;;;;;;28.17;50.73;101253.13;4989232;28;20509;-78
2022/08/02 06:47:42;;;;;;;5.80;2.08;;;;;;;28.15;49.78;101259.75;4990894;28;20043;-79
2022/08/02 06:50:10;;;;;;;5.10;1.75;;;;;;;28.08;49.55;101263.22;4990679;28;20046;-78
2022/08/02 06:52:45;;;;;;;4.68;2.05;;;;;;;27.99;49.45;101252.53;4989691;28;20053;-79
2022/08/02 06:55:12;;;;;;;4.00;1.92;;;;;;;27.94;49.42;101252.25;5008455;28;20497;-79
2022/08/02 06:57:39;;;;;;;4.57;1.65;;;;;;;27.86;49.20;101236.81;5010229;28;20050;-79
2022/08/02 07:00:08;;;;;;;3.25;1.70;;;;;;;27.80;49.80;101238.38;5010921;28;20068;-79
2022/08/02 07:02:36;;;;;;;4.40;1.95;;;;;;;27.77;49.69;101244.16;5010199;28;20056;-79
2022/08/02 07:05:04;;;;;;;4.22;1.60;;;;;;;27.72;49.61;101252.00;5010807;28;20053;-79
2022/08/02 07:07:32;;;;;;;2.75;1.45;;;;;;;27.69;49.04;101249.63;5008677;28;20409;-77
2022/08/02 07:09:59;;;;;;;4.55;1.73;;;;;;;27.63;49.49;101257.63;5009197;28;20042;-79
2022/08/02 07:12:29;;;;;;;4.82;1.90;;;;;;;27.59;49.06;101260.72;5010485;28;20064;-79
2022/08/02 07:15:03;;;;;;;4.68;1.50;;;;;;;27.53;48.66;101255.97;5010360;28;20057;-79
2022/08/02 07:17:31;;;;;;;3.05;1.40;;;;;;;27.51;49.09;101257.19;5009116;28;20046;-79
2022/08/02 07:19:59;;;;;;;4.18;1.52;;;;;;;27.48;49.39;101247.50;5010002;28;20072;-80
2022/08/02 07:22:27;;;;;;;3.53;1.60;;;;;;;27.47;49.70;101236.81;5008766;28;20481;-77
2022/08/02 07:24:56;;;;;;;4.55;2.10;;;;;;;27.44;49.48;101239.88;5011690;28;20046;-77
2022/08/02 07:27:24;;;;;;;3.40;1.90;;;;;;;27.41;49.68;101235.63;5014230;28;20481;-77
2022/08/02 07:29:52;;;;;;;4.32;1.95;;;;;;;27.40;49.38;101227.66;5013366;28;20046;-77
2022/08/02 07:32:23;;;;;;;4.32;1.95;;;;;;;27.38;49.48;101225.09;5013637;28;20046;-77
2022/08/02 07:39:27;;;;;;;3.90;2.05;;;;;;;27.38;50.33;101211.50;5030549;28;20503;-79
2022/08/02 07:41:57;;;;;;;5.78;2.13;;;;;;;27.38;50.55;101208.78;5013381;28;20054;-79
2022/08/02 07:44:25;;;;;;;2.90;1.63;;;;;;;27.41;50.41;101215.75;5013190;28;20045;-78
2022/08/02 07:46:53;;;;;;;3.55;1.95;;;;;;;27.41;49.35;101230.19;5013025;28;20111;-81
2022/08/02 07:49:21;;;;;;;4.25;1.77;;;;;;;27.40;49.95;101231.22;5011739;28;20068;-79
2022/08/02 07:51:48;;;;;;;3.95;1.58;;;;;;;27.42;49.72;101233.75;5013166;28;20057;-79
2022/08/02 07:54:15;;;;;;;5.25;1.52;;;;;;;27.39;49.01;101234.97;5013243;28;20053;-79
2022/08/02 07:56:43;;;;;;;3.42;1.40;;;;;;;27.39;49.03;101234.09;5012565;28;20069;-79
2022/08/02 07:59:10;;;;;;;4.47;1.35;;;;;;;27.38;49.27;101229.69;5011905;28;20054;-79
2022/08/02 08:01:38;;;;;;;6.07;1.50;;;;;;;27.38;49.36;101225.09;5011727;28;20038;-79
2022/08/02 08:04:12;;;;;;;4.93;1.48;;;;;;;27.38;49.87;101222.38;5013292;28;20049;-81
2022/08/02 08:06:39;;;;;;;4.28;1.65;;;;;;;27.38;48.99;101218.81;5012670;28;20042;-79
2022/08/02 08:09:06;;;;;;;4.07;1.55;;;;;;;27.39;49.39;101218.66;5013026;28;20050;-79
2022/08/02 08:11:34;;;;;;;3.78;1.50;;;;;;;27.39;49.14;101217.78;5013017;28;20060;-79
2022/08/02 08:14:01;;;;;;;8.70;1.98;;;;;;;27.41;49.56;101207.59;5012904;28;20492;-79
2022/08/02 08:16:28;;;;;;;3.95;1.60;;;;;;;27.42;49.20;101209.28;5012760;28;20127;-79
2022/08/02 08:18:56;;;;;;;4.10;1.55;;;;;;;27.45;49.28;101206.22;5012806;28;20057;-79
2022/08/02 08:21:23;;;;;;;4.13;1.50;;;;;;;27.45;49.58;101204.34;5012633;28;20072;-78
2022/08/02 08:23:50;;;;;;;3.53;1.60;;;;;;;27.45;48.86;101201.63;5011173;28;20417;-79
2022/08/02 08:26:18;;;;;;;4.60;1.65;;;;;;;27.46;49.12;101211.47;5012512;28;20050;-79
2022/08/02 08:28:45;;;;;;;3.72;1.98;;;;;;;27.46;48.77;101203.31;5012294;28;20038;-79
2022/08/02 08:31:13;;;;;;;3.10;1.63;;;;;;;27.47;48.68;101207.75;5012268;28;20512;-76
2022/08/02 08:33:40;;;;;;;4.03;1.50;;;;;;;27.49;48.65;101204.84;5012117;28;20406;-76
2022/08/02 08:36:07;;;;;;;3.40;1.70;;;;;;;27.51;48.40;101206.38;5011409;28;20050;-76
2022/08/02 08:38:35;;;;;;;2.75;1.48;;;;;;;27.53;48.04;101207.00;5010639;28;20042;-77
2022/08/02 08:41:02;;;;;;;3.47;1.58;;;;;;;27.54;48.04;101203.25;4996471;28;20041;-78
2022/08/02 08:43:30;;;;;;;3.58;1.67;;;;;;;27.58;47.85;101207.31;5012950;28;20505;-77
2022/08/02 08:45:57;;;;;;;3.00;1.52;;;;;;;27.60;47.35;101199.00;5011231;28;20042;-78
2022/08/02 08:48:26;;;;;;;4.70;1.67;;;;;;;27.63;47.45;101197.78;5012276;28;20045;-81
2022/08/02 08:51:12;;;;;;;4.75;1.75;;;;;;;27.67;47.55;101199.13;5012458;28;20401;-82
2022/08/02 08:53:42;;;;;;;2.90;1.70;;;;;;;27.70;47.36;101204.22;5012180;28;20068;-82
2022/08/02 08:56:11;;;;;;;5.25;1.85;;;;;;;27.73;47.41;101190.25;4992585;28;20057;-78
2022/08/02 08:58:43;;;;;;;3.42;1.83;;;;;;;27.76;47.19;101181.78;4991406;28;20047;-78
2022/08/02 09:01:13;;;;;;;3.65;1.50;;;;;;;27.78;47.32;101183.28;4993075;28;20379;-78
2022/08/02 09:03:42;;;;;;;2.60;1.48;;;;;;;27.79;47.49;101181.41;4992295;28;20050;-79
2022/08/02 09:06:10;;;;;;;3.65;2.45;;;;;;;27.81;47.00;101182.94;4992378;28;20050;-78
2022/08/02 09:08:39;;;;;;;4.50;1.80;;;;;;;27.86;45.67;101174.22;4992660;28;20042;-78
2022/08/02 09:11:19;;;;;;;2.50;1.23;;;;;;;27.89;45.80;101178.47;4992395;28;20041;-79
2022/08/02 09:13:53;;;;;;;4.70;1.50;;;;;;;27.93;45.67;101177.91;4992624;28;20050;-78
2022/08/02 09:16:35;;;;;;;5.78;1.85;;;;;;;27.98;45.64;101171.94;4992211;28;20089;-79
2022/08/02 09:19:19;;;;;;;3.03;1.90;;;;;;;28.02;45.54;101174.09;5000707;28;20049;-79
2022/08/02 09:22:00;;;;;;;2.70;1.50;;;;;;;28.04;45.54;101169.34;5019696;28;20050;-79
2022/08/02 09:24:27;;;;;;;2.78;1.50;;;;;;;28.06;45.85;101158.25;5114729;28;20050;-79
2022/08/02 09:26:58;;;;;;;2.40;1.58;;;;;;;28.09;46.15;101158.75;5115428;28;20043;-79
2022/08/02 09:29:25;;;;;;;3.40;1.80;;;;;;;28.07;46.13;101149.91;5114838;28;20039;-79
2022/08/02 09:32:01;;;;;;;7.18;1.80;;;;;;;28.06;46.25;101144.66;5113203;28;20048;-79
2022/08/02 09:35:01;;;;;;;3.28;1.52;;;;;;;28.06;44.91;101148.22;5114934;28;20063;-79
2022/08/02 09:37:30;;;;;;;3.35;1.50;;;;;;;28.10;45.08;101143.25;5037683;28;20069;-79
2022/08/02 09:39:59;;;;;;;2.25;1.63;;;;;;;28.14;44.24;101149.19;5017127;28;20050;-80
2022/08/02 09:42:28;;;;;;;2.00;1.50;;;;;;;28.14;45.08;101154.63;5010834;28;20412;-79
2022/08/02 09:44:59;;;;;;;2.50;1.40;;;;;;;28.15;44.92;101153.59;5010831;28;20050;-76
2022/08/02 09:47:29;;;;;;;2.92;1.27;;;;;;;28.13;45.04;101145.63;5010798;28;20482;-80
2022/08/02 09:49:57;;;;;;;3.15;1.58;;;;;;;28.15;44.79;101143.56;5009689;28;20064;-78
2022/08/02 09:52:29;;;;;;;3.17;1.48;;;;;;;28.17;45.10;101138.78;5011354;28;20045;-78
2022/08/02 09:55:30;;;;;;;3.13;1.30;;;;;;;28.18;44.67;101142.34;5009874;28;20050;-78
2022/08/02 09:57:57;;;;;;;5.18;1.50;;;;;;;28.18;45.10;101128.75;5009674;28;20041;-79
2022/08/02 10:00:25;;;;;;;3.67;1.63;;;;;;;28.19;43.93;101131.28;5010831;28;20049;-79
2022/08/02 10:03:12;;;;;;;1.73;1.30;;;;;;;28.20;44.21;101129.41;5011326;28;20053;-79
2022/08/02 10:05:54;;;;;;;2.38;1.50;;;;;;;28.22;44.11;101124.63;5011140;28;20046;-78
2022/08/02 10:08:30;;;;;;;3.20;1.45;;;;;;;28.23;44.51;101123.59;5011126;28;20042;-82
2022/08/02 10:11:00;;;;;;;3.75;1.48;;;;;;;28.23;44.13;101124.44;5011053;28;20045;-78
2022/08/02 10:13:31;;;;;;;2.45;1.58;;;;;;;28.29;42.63;101117.41;5010742;28;20050;-79
2022/08/02 10:16:01;;;;;;;2.38;1.17;;;;;;;28.35;42.04;101125.69;5010892;28;20053;-79
2022/08/02 10:18:29;;;;;;;2.65;1.23;;;;;;;28.34;43.34;101120.44;5010691;28;20049;-79
2022/08/02 10:21:12;;;;;;;3.00;1.48;;;;;;;28.34;45.68;101125.88;5010307;28;20046;-79
2022/08/02 10:23:42;;;;;;;2.00;1.40;;;;;;;28.30;47.84;101113.66;5010970;28;20042;-79
2022/08/02 10:26:14;;;;;;;3.35;1.50;;;;;;;28.26;47.20;101109.59;5011270;28;20053;-79
2022/08/02 10:28:44;;;;;;;4.30;1.50;;;;;;;28.21;48.55;101112.88;5010689;28;20038;-79
2022/08/02 10:31:15;;;;;;;3.22;1.30;;;;;;;28.19;49.36;101119.53;5010850;28;20287;-80
2022/08/02 10:33:44;;;;;;;2.65;1.40;;;;;;;28.14;48.99;101106.47;5010094;28;20046;-75
2022/08/02 10:36:18;;;;;;;3.08;1.70;;;;;;;28.13;46.93;101112.97;5010392;28;20046;-77
2022/08/02 10:38:46;;;;;;;3.13;1.48;;;;;;;28.12;45.37;101111.28;5010392;28;20057;-78
2022/08/02 10:41:13;;;;;;;3.80;1.52;;;;;;;28.10;47.46;101114.16;5009795;28;20493;-79
2022/08/02 10:43:43;;;;;;;2.58;1.30;;;;;;;28.09;46.56;101109.75;5008594;28;20058;-78
2022/08/02 10:46:35;;;;;;;2.10;1.50;;;;;;;28.08;48.14;101102.63;5010112;28;20045;-78
2022/08/02 10:49:08;;;;;;;3.10;1.60;;;;;;;28.08;48.91;101102.63;5008436;28;20050;-77
2022/08/02 10:52:01;;;;;;;2.33;1.65;;;;;;;28.06;45.98;101093.78;5010429;28;20045;-78
2022/08/02 10:54:35;;;;;;;3.05;1.52;;;;;;;28.07;46.03;101097.34;5010074;28;20046;-77
2022/08/02 10:57:24;;;;;;;2.97;1.83;;;;;;;28.07;46.03;101083.75;5109916;28;20056;-78
2022/08/02 10:59:56;;;;;;;2.30;1.58;;;;;;;28.05;45.07;101081.22;5113505;28;20051;-78
2022/08/02 11:02:38;;;;;;;2.83;1.98;;;;;;;28.06;47.36;101088.34;5117522;28;20051;-78
2022/08/02 11:05:10;;;;;;;2.22;1.30;;;;;;;28.09;42.38;101081.69;5065756;28;20404;-78
2022/08/02 11:07:48;;;;;;;3.00;1.40;;;;;;;28.13;42.23;101088.47;4993535;28;20057;-79
2022/08/02 11:10:25;;;;;;;1.73;1.27;;;;;;;28.15;44.12;101080.09;4994058;28;20046;-79
2022/08/02 11:13:09;;;;;;;3.53;1.30;;;;;;;28.15;42.30;101074.66;4993826;28;20055;-80
2022/08/02 11:16:01;;;;;;;3.20;1.70;;;;;;;28.16;45.38;101076.38;4992380;28;20490;-80
2022/08/02 11:18:50;;;;;;;3.58;1.50;;;;;;;28.15;46.53;101071.94;4994045;28;20053;-80
2022/08/02 11:21:28;;;;;;;2.83;1.40;;;;;;;28.16;41.73;101063.59;4993881;28;20051;-80
2022/08/02 11:24:15;;;;;;;3.25;1.30;;;;;;;28.28;40.71;101067.56;4993506;28;20371;-79
2022/08/02 11:26:44;;;;;;;2.28;1.27;;;;;;;28.33;40.30;101059.69;4992399;28;20057;-79
2022/08/02 11:29:19;;;;;;;3.35;1.50;;;;;;;28.38;40.63;101066.47;4993614;28;20050;-80
2022/08/02 11:31:53;;;;;;;1.80;1.23;;;;;;;28.36;42.02;101063.94;4979538;28;20517;-77
2022/08/02 11:34:24;;;;;;;2.28;1.23;;;;;;;28.34;43.28;101055.06;4993792;28;20047;-79
2022/08/02 11:37:04;;;;;;;3.22;1.55;;;;;;;28.55;40.89;101052.47;5019220;28;20047;-78
2022/08/02 11:39:31;;;;;;;3.50;1.55;;;;;;;28.68;40.37;101053.69;5014039;28;20050;-79
2022/08/02 11:42:00;;;;;;;2.50;1.30;;;;;;;28.87;39.96;101035.94;5012404;28;20049;-80
2022/08/02 11:44:38;;;;;;;7.07;1.55;;;;;;;29.12;39.80;101040.03;5012427;28;20046;-80
2022/08/02 11:47:07;;;;;;;2.08;1.30;;;;;;;29.11;39.38;101045.69;5012145;28;20072;-80
2022/08/02 11:49:36;;;;;;;2.67;1.48;;;;;;;29.08;40.08;101030.56;5009175;28;20484;-80
2022/08/02 11:52:09;;;;;;;3.40;1.50;;;;;;;29.09;40.36;101037.72;4993541;28;20050;-84